sensor_id;sensor_type;location;lat;lon;timestamp;P1;durP1;ratioP1;P2;durP2;ratioP2
10550;SDS011;5324;50.684;3.862;2024-02-04T00:00:48;3.87;;;2.80;;
10550;SDS011;5324;50.684;3.862;2024-02-04T00:03:14;3.07;;;2.50;;
10550;SDS011;5324;50.684;3.862;2024-02-04T00:05:40;4.20;;;2.30;;
10550;SDS011;5324;50.684;3.862;2024-02-04T00:08:07;4.43;;;2.90;;
10550;SDS011;5324;50.684;3.862;2024-02-04T00:10:33;3.87;;;2.60;;
10550;SDS011;5324;50.684;3.862;2024-02-04T00:12:59;3.63;;;3.10;;
10550;SDS011;5324;50.684;3.862;2024-02-04T00:15:25;5.00;;;2.60;;
10550;SDS011;5324;50.684;3.862;2024-02-04T00:17:52;3.37;;;2.53;;
10550;SDS011;5324;50.684;3.862;2024-02-04T00:20:18;5.07;;;2.63;;
10550;SDS011;5324;50.684;3.862;2024-02-04T00:22:44;4.63;;;2.30;;
10550;SDS011;5324;50.684;3.862;2024-02-04T00:25:10;5.43;;;2.50;;
10550;SDS011;5324;50.684;3.862;2024-02-04T00:27:36;2.57;;;2.37;;
10550;SDS011;5324;50.684;3.862;2024-02-04T00:30:03;3.80;;;2.70;;
10550;SDS011;5324;50.684;3.862;2024-02-04T00:32:29;4.20;;;2.63;;
10550;SDS011;5324;50.684;3.862;2024-02-04T00:34:56;5.90;;;2.70;;
10550;SDS011;5324;50.684;3.862;2024-02-04T00:37:22;5.37;;;2.87;;
10550;SDS011;5324;50.684;3.862;2024-02-04T00:39:48;3.43;;;2.63;;
10550;SDS011;5324;50.684;3.862;2024-02-04T00:42:14;4.77;;;3.00;;
10550;SDS011;5324;50.684;3.862;2024-02-04T00:44:40;3.20;;;2.67;;
10550;SDS011;5324;50.684;3.862;2024-02-04T00:47:06;3.60;;;2.47;;
10550;SDS011;5324;50.684;3.862;2024-02-04T00:49:32;4.57;;;2.30;;
10550;SDS011;5324;50.684;3.862;2024-02-04T00:51:58;5.00;;;2.50;;
10550;SDS011;5324;50.684;3.862;2024-02-04T00:54:24;7.27;;;2.40;;
10550;SDS011;5324;50.684;3.862;2024-02-04T00:56:50;4.90;;;2.77;;
10550;SDS011;5324;50.684;3.862;2024-02-04T00:59:16;3.57;;;2.33;;
10550;SDS011;5324;50.684;3.862;2024-02-04T01:01:42;3.77;;;2.60;;
10550;SDS011;5324;50.684;3.862;2024-02-04T01:04:08;3.67;;;2.27;;
10550;SDS011;5324;50.684;3.862;2024-02-04T01:06:34;4.40;;;2.00;;
10550;SDS011;5324;50.684;3.862;2024-02-04T01:09:03;2.37;;;2.13;;
10550;SDS011;5324;50.684;3.862;2024-02-04T01:11:29;2.73;;;2.50;;
10550;SDS011;5324;50.684;3.862;2024-02-04T01:13:56;4.83;;;2.73;;
10550;SDS011;5324;50.684;3.862;2024-02-04T01:16:22;3.83;;;2.30;;
10550;SDS011;5324;50.684;3.862;2024-02-04T01:18:48;4.23;;;2.77;;
10550;SDS011;5324;50.684;3.862;2024-02-04T01:21:14;4.07;;;2.57;;
10550;SDS011;5324;50.684;3.862;2024-02-04T01:23:40;4.33;;;2.77;;
10550;SDS011;5324;50.684;3.862;2024-02-04T01:26:06;5.43;;;2.63;;
10550;SDS011;5324;50.684;3.862;2024-02-04T01:28:33;6.13;;;2.73;;
10550;SDS011;5324;50.684;3.862;2024-02-04T01:30:59;4.87;;;2.23;;
10550;SDS011;5324;50.684;3.862;2024-02-04T01:33:25;5.00;;;2.70;;
10550;SDS011;5324;50.684;3.862;2024-02-04T01:35:51;5.20;;;2.60;;
10550;SDS011;5324;50.684;3.862;2024-02-04T01:38:17;5.40;;;2.43;;
10550;SDS011;5324;50.684;3.862;2024-02-04T01:40:43;3.77;;;2.40;;
10550;SDS011;5324;50.684;3.862;2024-02-04T01:43:11;4.30;;;2.53;;
10550;SDS011;5324;50.684;3.862;2024-02-04T01:45:37;4.13;;;2.37;;
10550;SDS011;5324;50.684;3.862;2024-02-04T01:48:04;4.20;;;2.40;;
10550;SDS011;5324;50.684;3.862;2024-02-04T01:50:30;5.93;;;2.73;;
10550;SDS011;5324;50.684;3.862;2024-02-04T01:52:56;5.73;;;2.23;;
10550;SDS011;5324;50.684;3.862;2024-02-04T01:55:22;6.77;;;3.00;;
10550;SDS011;5324;50.684;3.862;2024-02-04T01:57:48;4.40;;;2.67;;
10550;SDS011;5324;50.684;3.862;2024-02-04T02:00:15;5.23;;;2.77;;
10550;SDS011;5324;50.684;3.862;2024-02-04T02:02:43;7.57;;;3.10;;
10550;SDS011;5324;50.684;3.862;2024-02-04T02:05:11;7.40;;;2.93;;
10550;SDS011;5324;50.684;3.862;2024-02-04T02:07:37;5.30;;;2.90;;
10550;SDS011;5324;50.684;3.862;2024-02-04T02:10:04;6.03;;;3.13;;
10550;SDS011;5324;50.684;3.862;2024-02-04T02:12:36;12.33;;;3.13;;
10550;SDS011;5324;50.684;3.862;2024-02-04T02:15:12;5.57;;;3.07;;
10550;SDS011;5324;50.684;3.862;2024-02-04T02:20:33;5.47;;;3.00;;
10550;SDS011;5324;50.684;3.862;2024-02-04T02:23:10;5.03;;;2.73;;
10550;SDS011;5324;50.684;3.862;2024-02-04T02:25:37;3.93;;;2.37;;
10550;SDS011;5324;50.684;3.862;2024-02-04T02:28:04;5.80;;;2.53;;
10550;SDS011;5324;50.684;3.862;2024-02-04T02:30:30;7.67;;;2.97;;
10550;SDS011;5324;50.684;3.862;2024-02-04T02:32:56;5.00;;;2.90;;
10550;SDS011;5324;50.684;3.862;2024-02-04T02:35:22;5.87;;;2.80;;
10550;SDS011;5324;50.684;3.862;2024-02-04T02:37:53;5.03;;;2.40;;
10550;SDS011;5324;50.684;3.862;2024-02-04T02:40:22;5.53;;;2.20;;
10550;SDS011;5324;50.684;3.862;2024-02-04T02:42:49;4.50;;;3.20;;
10550;SDS011;5324;50.684;3.862;2024-02-04T02:45:19;4.47;;;2.40;;
10550;SDS011;5324;50.684;3.862;2024-02-04T02:47:45;6.20;;;2.93;;
10550;SDS011;5324;50.684;3.862;2024-02-04T02:50:12;5.10;;;2.20;;
10550;SDS011;5324;50.684;3.862;2024-02-04T02:52:38;2.97;;;2.40;;
10550;SDS011;5324;50.684;3.862;2024-02-04T02:55:05;4.43;;;2.50;;
10550;SDS011;5324;50.684;3.862;2024-02-04T02:57:31;5.87;;;2.90;;
10550;SDS011;5324;50.684;3.862;2024-02-04T02:59:57;6.27;;;2.50;;
10550;SDS011;5324;50.684;3.862;2024-02-04T03:02:23;3.87;;;2.27;;
10550;SDS011;5324;50.684;3.862;2024-02-04T03:04:49;7.80;;;2.53;;
10550;SDS011;5324;50.684;3.862;2024-02-04T03:07:15;5.67;;;2.30;;
10550;SDS011;5324;50.684;3.862;2024-02-04T03:09:41;6.53;;;3.00;;
10550;SDS011;5324;50.684;3.862;2024-02-04T03:12:08;5.97;;;3.07;;
10550;SDS011;5324;50.684;3.862;2024-02-04T03:14:34;5.93;;;2.50;;
10550;SDS011;5324;50.684;3.862;2024-02-04T03:17:00;7.60;;;2.57;;
10550;SDS011;5324;50.684;3.862;2024-02-04T03:19:26;5.20;;;2.80;;
10550;SDS011;5324;50.684;3.862;2024-02-04T03:21:52;3.77;;;2.70;;
10550;SDS011;5324;50.684;3.862;2024-02-04T03:24:18;10.20;;;3.10;;
10550;SDS011;5324;50.684;3.862;2024-02-04T03:26:44;7.03;;;3.30;;
10550;SDS011;5324;50.684;3.862;2024-02-04T03:29:10;6.53;;;3.40;;
10550;SDS011;5324;50.684;3.862;2024-02-04T03:31:37;13.37;;;3.83;;
10550;SDS011;5324;50.684;3.862;2024-02-04T03:34:03;6.63;;;3.70;;
10550;SDS011;5324;50.684;3.862;2024-02-04T03:36:29;6.93;;;2.97;;
10550;SDS011;5324;50.684;3.862;2024-02-04T03:38:56;8.60;;;3.17;;
10550;SDS011;5324;50.684;3.862;2024-02-04T03:41:22;5.83;;;3.77;;
10550;SDS011;5324;50.684;3.862;2024-02-04T03:43:48;6.37;;;3.37;;
10550;SDS011;5324;50.684;3.862;2024-02-04T03:46:14;9.20;;;3.57;;
10550;SDS011;5324;50.684;3.862;2024-02-04T03:48:40;9.00;;;3.80;;
10550;SDS011;5324;50.684;3.862;2024-02-04T03:51:07;5.53;;;3.43;;
10550;SDS011;5324;50.684;3.862;2024-02-04T03:53:33;8.47;;;3.17;;
10550;SDS011;5324;50.684;3.862;2024-02-04T03:55:59;7.07;;;3.20;;
10550;SDS011;5324;50.684;3.862;2024-02-04T03:58:25;8.63;;;3.53;;
10550;SDS011;5324;50.684;3.862;2024-02-04T04:00:55;7.07;;;3.00;;
10550;SDS011;5324;50.684;3.862;2024-02-04T04:03:21;6.47;;;3.03;;
10550;SDS011;5324;50.684;3.862;2024-02-04T04:05:48;8.97;;;2.90;;
10550;SDS011;5324;50.684;3.862;2024-02-04T04:08:15;4.27;;;3.13;;
10550;SDS011;5324;50.684;3.862;2024-02-04T04:10:41;6.90;;;3.40;;
10550;SDS011;5324;50.684;3.862;2024-02-04T04:13:07;7.47;;;3.40;;
10550;SDS011;5324;50.684;3.862;2024-02-04T04:15:33;8.17;;;3.70;;
10550;SDS011;5324;50.684;3.862;2024-02-04T04:17:59;9.93;;;3.70;;
10550;SDS011;5324;50.684;3.862;2024-02-04T04:20:25;6.90;;;3.50;;
10550;SDS011;5324;50.684;3.862;2024-02-04T04:22:51;8.07;;;3.23;;
10550;SDS011;5324;50.684;3.862;2024-02-04T04:25:17;5.60;;;3.07;;
10550;SDS011;5324;50.684;3.862;2024-02-04T04:27:43;5.80;;;3.00;;
10550;SDS011;5324;50.684;3.862;2024-02-04T04:30:10;6.23;;;2.50;;
10550;SDS011;5324;50.684;3.862;2024-02-04T04:32:36;5.63;;;3.30;;
10550;SDS011;5324;50.684;3.862;2024-02-04T04:35:02;4.50;;;2.63;;
10550;SDS011;5324;50.684;3.862;2024-02-04T04:37:28;7.63;;;2.67;;
10550;SDS011;5324;50.684;3.862;2024-02-04T04:39:54;9.27;;;2.90;;
10550;SDS011;5324;50.684;3.862;2024-02-04T04:42:20;9.33;;;2.97;;
10550;SDS011;5324;50.684;3.862;2024-02-04T04:44:46;6.20;;;2.83;;
10550;SDS011;5324;50.684;3.862;2024-02-04T04:47:14;5.43;;;2.40;;
10550;SDS011;5324;50.684;3.862;2024-02-04T04:49:40;6.77;;;2.90;;
10550;SDS011;5324;50.684;3.862;2024-02-04T04:52:06;4.87;;;3.10;;
10550;SDS011;5324;50.684;3.862;2024-02-04T04:54:33;6.77;;;3.17;;
10550;SDS011;5324;50.684;3.862;2024-02-04T04:56:59;6.43;;;3.27;;
10550;SDS011;5324;50.684;3.862;2024-02-04T04:59:25;5.43;;;3.00;;
10550;SDS011;5324;50.684;3.862;2024-02-04T05:01:51;6.73;;;3.37;;
10550;SDS011;5324;50.684;3.862;2024-02-04T05:04:17;5.10;;;3.27;;
10550;SDS011;5324;50.684;3.862;2024-02-04T05:06:50;5.70;;;3.23;;
10550;SDS011;5324;50.684;3.862;2024-02-04T05:09:16;3.63;;;2.70;;
10550;SDS011;5324;50.684;3.862;2024-02-04T05:11:43;7.30;;;3.83;;
10550;SDS011;5324;50.684;3.862;2024-02-04T05:14:09;4.77;;;3.37;;
10550;SDS011;5324;50.684;3.862;2024-02-04T05:16:35;6.60;;;3.93;;
10550;SDS011;5324;50.684;3.862;2024-02-04T05:19:02;6.83;;;4.00;;
10550;SDS011;5324;50.684;3.862;2024-02-04T05:21:28;7.90;;;4.13;;
10550;SDS011;5324;50.684;3.862;2024-02-04T05:23:54;7.00;;;4.10;;
10550;SDS011;5324;50.684;3.862;2024-02-04T05:26:20;8.27;;;4.73;;
10550;SDS011;5324;50.684;3.862;2024-02-04T05:28:46;9.43;;;4.33;;
10550;SDS011;5324;50.684;3.862;2024-02-04T05:31:13;11.20;;;4.50;;
10550;SDS011;5324;50.684;3.862;2024-02-04T05:33:39;7.07;;;4.70;;
10550;SDS011;5324;50.684;3.862;2024-02-04T05:36:05;8.37;;;4.10;;
10550;SDS011;5324;50.684;3.862;2024-02-04T05:38:31;8.17;;;4.80;;
10550;SDS011;5324;50.684;3.862;2024-02-04T05:40:58;8.00;;;4.50;;
10550;SDS011;5324;50.684;3.862;2024-02-04T05:43:24;10.23;;;5.37;;
10550;SDS011;5324;50.684;3.862;2024-02-04T05:45:50;6.17;;;4.23;;
10550;SDS011;5324;50.684;3.862;2024-02-04T05:48:16;9.77;;;4.30;;
10550;SDS011;5324;50.684;3.862;2024-02-04T05:50:42;8.43;;;4.30;;
10550;SDS011;5324;50.684;3.862;2024-02-04T05:53:08;6.87;;;4.20;;
10550;SDS011;5324;50.684;3.862;2024-02-04T05:55:34;6.00;;;4.13;;
10550;SDS011;5324;50.684;3.862;2024-02-04T05:58:00;7.57;;;4.70;;
10550;SDS011;5324;50.684;3.862;2024-02-04T06:00:26;7.93;;;4.33;;
10550;SDS011;5324;50.684;3.862;2024-02-04T06:02:52;5.53;;;4.27;;
10550;SDS011;5324;50.684;3.862;2024-02-04T06:05:19;6.97;;;3.93;;
10550;SDS011;5324;50.684;3.862;2024-02-04T06:07:45;6.83;;;4.70;;
10550;SDS011;5324;50.684;3.862;2024-02-04T06:10:12;6.87;;;4.60;;
10550;SDS011;5324;50.684;3.862;2024-02-04T06:12:38;6.53;;;4.00;;
10550;SDS011;5324;50.684;3.862;2024-02-04T06:15:09;6.97;;;4.03;;
10550;SDS011;5324;50.684;3.862;2024-02-04T06:17:37;6.50;;;3.93;;
10550;SDS011;5324;50.684;3.862;2024-02-04T06:20:04;7.23;;;3.77;;
10550;SDS011;5324;50.684;3.862;2024-02-04T06:22:30;4.90;;;3.50;;
10550;SDS011;5324;50.684;3.862;2024-02-04T06:24:56;7.50;;;4.20;;
10550;SDS011;5324;50.684;3.862;2024-02-04T06:27:22;6.07;;;3.70;;
10550;SDS011;5324;50.684;3.862;2024-02-04T06:29:48;6.43;;;4.13;;
10550;SDS011;5324;50.684;3.862;2024-02-04T06:32:14;8.03;;;4.07;;
10550;SDS011;5324;50.684;3.862;2024-02-04T06:34:40;7.73;;;4.60;;
10550;SDS011;5324;50.684;3.862;2024-02-04T06:37:06;6.00;;;4.30;;
10550;SDS011;5324;50.684;3.862;2024-02-04T06:39:32;5.73;;;3.93;;
10550;SDS011;5324;50.684;3.862;2024-02-04T06:41:58;9.57;;;4.63;;
10550;SDS011;5324;50.684;3.862;2024-02-04T06:44:24;6.70;;;4.13;;
10550;SDS011;5324;50.684;3.862;2024-02-04T06:46:50;6.27;;;3.90;;
10550;SDS011;5324;50.684;3.862;2024-02-04T06:49:16;5.87;;;4.30;;
10550;SDS011;5324;50.684;3.862;2024-02-04T06:51:43;6.87;;;4.30;;
10550;SDS011;5324;50.684;3.862;2024-02-04T06:54:10;10.33;;;4.40;;
10550;SDS011;5324;50.684;3.862;2024-02-04T06:56:36;6.43;;;4.53;;
10550;SDS011;5324;50.684;3.862;2024-02-04T06:59:02;7.97;;;3.90;;
10550;SDS011;5324;50.684;3.862;2024-02-04T07:01:28;8.90;;;5.17;;
10550;SDS011;5324;50.684;3.862;2024-02-04T07:03:54;10.00;;;4.40;;
10550;SDS011;5324;50.684;3.862;2024-02-04T07:06:20;7.10;;;4.23;;
10550;SDS011;5324;50.684;3.862;2024-02-04T07:08:47;8.07;;;4.83;;
10550;SDS011;5324;50.684;3.862;2024-02-04T07:11:13;6.57;;;4.20;;
10550;SDS011;5324;50.684;3.862;2024-02-04T07:13:39;6.60;;;4.27;;
10550;SDS011;5324;50.684;3.862;2024-02-04T07:16:05;7.70;;;3.93;;
10550;SDS011;5324;50.684;3.862;2024-02-04T07:18:31;8.10;;;4.57;;
10550;SDS011;5324;50.684;3.862;2024-02-04T07:20:57;7.00;;;4.80;;
10550;SDS011;5324;50.684;3.862;2024-02-04T07:23:23;7.23;;;4.33;;
10550;SDS011;5324;50.684;3.862;2024-02-04T07:25:49;6.33;;;4.00;;
10550;SDS011;5324;50.684;3.862;2024-02-04T07:28:15;8.97;;;3.77;;
10550;SDS011;5324;50.684;3.862;2024-02-04T07:30:41;5.43;;;3.77;;
10550;SDS011;5324;50.684;3.862;2024-02-04T07:33:07;7.33;;;3.73;;
10550;SDS011;5324;50.684;3.862;2024-02-04T07:35:34;4.17;;;3.13;;
10550;SDS011;5324;50.684;3.862;2024-02-04T07:38:01;4.83;;;3.23;;
10550;SDS011;5324;50.684;3.862;2024-02-04T07:40:27;4.40;;;2.97;;
10550;SDS011;5324;50.684;3.862;2024-02-04T07:42:53;4.20;;;3.23;;
10550;SDS011;5324;50.684;3.862;2024-02-04T07:45:20;5.07;;;3.20;;
10550;SDS011;5324;50.684;3.862;2024-02-04T07:47:46;5.67;;;2.97;;
10550;SDS011;5324;50.684;3.862;2024-02-04T07:50:12;4.47;;;2.63;;
10550;SDS011;5324;50.684;3.862;2024-02-04T07:52:38;3.27;;;2.60;;
10550;SDS011;5324;50.684;3.862;2024-02-04T07:55:04;4.77;;;2.97;;
10550;SDS011;5324;50.684;3.862;2024-02-04T07:57:30;4.13;;;2.57;;
10550;SDS011;5324;50.684;3.862;2024-02-04T07:59:56;6.87;;;2.67;;
10550;SDS011;5324;50.684;3.862;2024-02-04T08:02:22;4.03;;;2.17;;
10550;SDS011;5324;50.684;3.862;2024-02-04T08:04:48;3.93;;;2.20;;
10550;SDS011;5324;50.684;3.862;2024-02-04T08:07:15;5.77;;;2.77;;
10550;SDS011;5324;50.684;3.862;2024-02-04T08:09:42;4.07;;;2.30;;
10550;SDS011;5324;50.684;3.862;2024-02-04T08:12:08;3.30;;;2.03;;
10550;SDS011;5324;50.684;3.862;2024-02-04T08:14:34;2.73;;;1.93;;
10550;SDS011;5324;50.684;3.862;2024-02-04T08:17:01;2.50;;;1.70;;
10550;SDS011;5324;50.684;3.862;2024-02-04T08:19:27;2.53;;;1.67;;
10550;SDS011;5324;50.684;3.862;2024-02-04T08:21:53;2.37;;;1.47;;
10550;SDS011;5324;50.684;3.862;2024-02-04T08:24:19;3.97;;;1.70;;
10550;SDS011;5324;50.684;3.862;2024-02-04T08:26:45;2.97;;;1.70;;
10550;SDS011;5324;50.684;3.862;2024-02-04T08:29:11;2.17;;;1.83;;
10550;SDS011;5324;50.684;3.862;2024-02-04T08:31:37;2.80;;;1.80;;
10550;SDS011;5324;50.684;3.862;2024-02-04T08:34:03;2.17;;;1.40;;
10550;SDS011;5324;50.684;3.862;2024-02-04T08:36:29;5.23;;;1.70;;
10550;SDS011;5324;50.684;3.862;2024-02-04T08:38:56;1.73;;;1.63;;
10550;SDS011;5324;50.684;3.862;2024-02-04T08:41:22;3.57;;;1.70;;
10550;SDS011;5324;50.684;3.862;2024-02-04T08:43:48;4.80;;;1.70;;
10550;SDS011;5324;50.684;3.862;2024-02-04T08:46:14;2.40;;;1.83;;
10550;SDS011;5324;50.684;3.862;2024-02-04T08:48:41;3.33;;;2.03;;
10550;SDS011;5324;50.684;3.862;2024-02-04T08:51:10;3.53;;;1.60;;
10550;SDS011;5324;50.684;3.862;2024-02-04T08:53:37;1.20;;;1.20;;
10550;SDS011;5324;50.684;3.862;2024-02-04T08:56:04;2.27;;;1.50;;
10550;SDS011;5324;50.684;3.862;2024-02-04T08:58:31;3.00;;;1.40;;
10550;SDS011;5324;50.684;3.862;2024-02-04T09:00:57;2.17;;;1.60;;
10550;SDS011;5324;50.684;3.862;2024-02-04T09:03:23;2.47;;;1.20;;
10550;SDS011;5324;50.684;3.862;2024-02-04T09:05:49;2.83;;;1.57;;
10550;SDS011;5324;50.684;3.862;2024-02-04T09:08:15;2.40;;;1.80;;
10550;SDS011;5324;50.684;3.862;2024-02-04T09:10:41;1.57;;;1.47;;
10550;SDS011;5324;50.684;3.862;2024-02-04T09:13:07;2.07;;;1.83;;
10550;SDS011;5324;50.684;3.862;2024-02-04T09:15:33;2.40;;;1.53;;
10550;SDS011;5324;50.684;3.862;2024-02-04T09:17:59;3.17;;;1.90;;
10550;SDS011;5324;50.684;3.862;2024-02-04T09:20:25;2.37;;;2.00;;
10550;SDS011;5324;50.684;3.862;2024-02-04T09:22:51;3.03;;;1.90;;
10550;SDS011;5324;50.684;3.862;2024-02-04T09:25:18;2.13;;;2.03;;
10550;SDS011;5324;50.684;3.862;2024-02-04T09:27:44;2.20;;;2.00;;
10550;SDS011;5324;50.684;3.862;2024-02-04T09:30:10;2.10;;;1.83;;
10550;SDS011;5324;50.684;3.862;2024-02-04T09:32:36;2.63;;;1.90;;
10550;SDS011;5324;50.684;3.862;2024-02-04T09:35:03;3.63;;;2.03;;
10550;SDS011;5324;50.684;3.862;2024-02-04T09:37:29;2.40;;;2.20;;
10550;SDS011;5324;50.684;3.862;2024-02-04T09:39:55;2.67;;;1.90;;
10550;SDS011;5324;50.684;3.862;2024-02-04T09:42:21;2.63;;;2.00;;
10550;SDS011;5324;50.684;3.862;2024-02-04T09:44:48;4.13;;;2.10;;
10550;SDS011;5324;50.684;3.862;2024-02-04T09:47:14;3.23;;;1.53;;
10550;SDS011;5324;50.684;3.862;2024-02-04T09:49:41;3.30;;;1.83;;
10550;SDS011;5324;50.684;3.862;2024-02-04T09:52:08;2.30;;;1.97;;
10550;SDS011;5324;50.684;3.862;2024-02-04T09:54:36;4.30;;;1.77;;
10550;SDS011;5324;50.684;3.862;2024-02-04T09:57:05;1.80;;;1.70;;
10550;SDS011;5324;50.684;3.862;2024-02-04T09:59:32;4.50;;;1.67;;
10550;SDS011;5324;50.684;3.862;2024-02-04T10:02:00;2.33;;;1.87;;
10550;SDS011;5324;50.684;3.862;2024-02-04T10:04:26;3.30;;;1.63;;
10550;SDS011;5324;50.684;3.862;2024-02-04T10:06:52;3.20;;;1.40;;
10550;SDS011;5324;50.684;3.862;2024-02-04T10:09:18;1.50;;;1.40;;
10550;SDS011;5324;50.684;3.862;2024-02-04T10:11:45;2.23;;;1.70;;
10550;SDS011;5324;50.684;3.862;2024-02-04T10:14:11;2.73;;;1.70;;
10550;SDS011;5324;50.684;3.862;2024-02-04T10:16:37;3.80;;;1.73;;
10550;SDS011;5324;50.684;3.862;2024-02-04T10:19:03;2.87;;;1.20;;
10550;SDS011;5324;50.684;3.862;2024-02-04T10:21:29;1.50;;;1.40;;
10550;SDS011;5324;50.684;3.862;2024-02-04T10:23:55;3.40;;;1.60;;
10550;SDS011;5324;50.684;3.862;2024-02-04T10:26:22;2.07;;;1.60;;
10550;SDS011;5324;50.684;3.862;2024-02-04T10:28:48;1.50;;;1.40;;
10550;SDS011;5324;50.684;3.862;2024-02-04T10:31:15;1.67;;;1.37;;
10550;SDS011;5324;50.684;3.862;2024-02-04T10:33:41;1.90;;;1.30;;
10550;SDS011;5324;50.684;3.862;2024-02-04T10:36:07;1.50;;;1.27;;
10550;SDS011;5324;50.684;3.862;2024-02-04T10:38:33;1.10;;;1.00;;
10550;SDS011;5324;50.684;3.862;2024-02-04T10:41:00;1.50;;;1.10;;
10550;SDS011;5324;50.684;3.862;2024-02-04T10:43:35;2.53;;;1.27;;
10550;SDS011;5324;50.684;3.862;2024-02-04T10:46:13;2.27;;;1.93;;
10550;SDS011;5324;50.684;3.862;2024-02-04T10:48:40;2.77;;;2.33;;
10550;SDS011;5324;50.684;3.862;2024-02-04T10:51:11;2.20;;;1.83;;
10550;SDS011;5324;50.684;3.862;2024-02-04T10:53:40;1.50;;;1.40;;
10550;SDS011;5324;50.684;3.862;2024-02-04T10:56:07;1.67;;;1.40;;
10550;SDS011;5324;50.684;3.862;2024-02-04T10:58:38;1.77;;;1.67;;
10550;SDS011;5324;50.684;3.862;2024-02-04T11:01:05;1.47;;;1.37;;
10550;SDS011;5324;50.684;3.862;2024-02-04T11:03:31;3.43;;;1.40;;
10550;SDS011;5324;50.684;3.862;2024-02-04T11:05:58;2.20;;;1.33;;
10550;SDS011;5324;50.684;3.862;2024-02-04T11:08:24;1.97;;;1.60;;
10550;SDS011;5324;50.684;3.862;2024-02-04T11:10:52;2.30;;;1.80;;
10550;SDS011;5324;50.684;3.862;2024-02-04T11:13:18;1.60;;;1.50;;
10550;SDS011;5324;50.684;3.862;2024-02-04T11:15:46;1.83;;;1.57;;
10550;SDS011;5324;50.684;3.862;2024-02-04T11:18:24;2.27;;;1.33;;
10550;SDS011;5324;50.684;3.862;2024-02-04T11:23:41;2.30;;;1.40;;
10550;SDS011;5324;50.684;3.862;2024-02-04T11:26:10;1.70;;;1.60;;
10550;SDS011;5324;50.684;3.862;2024-02-04T11:28:37;1.53;;;1.43;;
10550;SDS011;5324;50.684;3.862;2024-02-04T11:31:04;3.17;;;1.70;;
10550;SDS011;5324;50.684;3.862;2024-02-04T11:33:31;3.73;;;1.63;;
10550;SDS011;5324;50.684;3.862;2024-02-04T11:36:03;1.90;;;1.10;;
10550;SDS011;5324;50.684;3.862;2024-02-04T11:38:31;1.70;;;1.60;;
10550;SDS011;5324;50.684;3.862;2024-02-04T11:40:57;4.50;;;1.60;;
10550;SDS011;5324;50.684;3.862;2024-02-04T11:43:23;2.53;;;1.53;;
10550;SDS011;5324;50.684;3.862;2024-02-04T11:45:51;1.67;;;1.40;;
10550;SDS011;5324;50.684;3.862;2024-02-04T11:48:28;1.53;;;1.40;;
10550;SDS011;5324;50.684;3.862;2024-02-04T11:50:56;1.50;;;1.40;;
10550;SDS011;5324;50.684;3.862;2024-02-04T11:53:23;1.30;;;1.20;;
10550;SDS011;5324;50.684;3.862;2024-02-04T11:55:52;1.83;;;1.53;;
10550;SDS011;5324;50.684;3.862;2024-02-04T11:58:18;1.67;;;1.57;;
10550;SDS011;5324;50.684;3.862;2024-02-04T12:00:45;1.67;;;1.57;;
10550;SDS011;5324;50.684;3.862;2024-02-04T12:03:13;1.53;;;1.43;;
10550;SDS011;5324;50.684;3.862;2024-02-04T12:05:39;3.03;;;1.67;;
10550;SDS011;5324;50.684;3.862;2024-02-04T12:08:06;1.70;;;1.60;;
10550;SDS011;5324;50.684;3.862;2024-02-04T12:10:33;2.80;;;1.90;;
10550;SDS011;5324;50.684;3.862;2024-02-04T12:12:59;2.37;;;2.17;;
10550;SDS011;5324;50.684;3.862;2024-02-04T12:15:27;4.23;;;1.60;;
10550;SDS011;5324;50.684;3.862;2024-02-04T12:17:55;2.83;;;1.77;;
10550;SDS011;5324;50.684;3.862;2024-02-04T12:20:21;2.90;;;2.00;;
10550;SDS011;5324;50.684;3.862;2024-02-04T12:22:47;2.57;;;2.00;;
10550;SDS011;5324;50.684;3.862;2024-02-04T12:25:14;1.63;;;1.53;;
10550;SDS011;5324;50.684;3.862;2024-02-04T12:27:40;1.43;;;1.33;;
10550;SDS011;5324;50.684;3.862;2024-02-04T12:30:07;2.53;;;1.50;;
10550;SDS011;5324;50.684;3.862;2024-02-04T12:32:34;2.57;;;1.67;;
10550;SDS011;5324;50.684;3.862;2024-02-04T12:35:01;2.10;;;1.50;;
10550;SDS011;5324;50.684;3.862;2024-02-04T12:37:27;2.20;;;2.00;;
10550;SDS011;5324;50.684;3.862;2024-02-04T12:39:55;2.23;;;1.90;;
10550;SDS011;5324;50.684;3.862;2024-02-04T12:42:21;4.70;;;2.27;;
10550;SDS011;5324;50.684;3.862;2024-02-04T12:44:49;3.40;;;2.03;;
10550;SDS011;5324;50.684;3.862;2024-02-04T12:47:18;3.63;;;2.27;;
10550;SDS011;5324;50.684;3.862;2024-02-04T12:49:44;6.13;;;3.00;;
10550;SDS011;5324;50.684;3.862;2024-02-04T12:52:11;3.23;;;2.43;;
10550;SDS011;5324;50.684;3.862;2024-02-04T12:54:42;5.70;;;2.50;;
10550;SDS011;5324;50.684;3.862;2024-02-04T12:57:09;10.50;;;3.97;;
10550;SDS011;5324;50.684;3.862;2024-02-04T12:59:38;5.30;;;3.00;;
10550;SDS011;5324;50.684;3.862;2024-02-04T13:02:06;6.43;;;3.40;;
10550;SDS011;5324;50.684;3.862;2024-02-04T13:04:39;4.80;;;2.53;;
10550;SDS011;5324;50.684;3.862;2024-02-04T13:09:35;9.63;;;4.83;;
10550;SDS011;5324;50.684;3.862;2024-02-04T13:12:08;3.27;;;2.00;;
10550;SDS011;5324;50.684;3.862;2024-02-04T13:14:34;2.80;;;2.07;;
10550;SDS011;5324;50.684;3.862;2024-02-04T13:17:01;7.20;;;3.53;;
10550;SDS011;5324;50.684;3.862;2024-02-04T13:19:34;6.47;;;2.77;;
10550;SDS011;5324;50.684;3.862;2024-02-04T13:22:01;5.43;;;3.00;;
10550;SDS011;5324;50.684;3.862;2024-02-04T13:24:32;10.30;;;3.33;;
10550;SDS011;5324;50.684;3.862;2024-02-04T13:26:58;4.67;;;2.30;;
10550;SDS011;5324;50.684;3.862;2024-02-04T13:29:26;7.47;;;4.30;;
10550;SDS011;5324;50.684;3.862;2024-02-04T13:31:52;5.17;;;2.93;;
10550;SDS011;5324;50.684;3.862;2024-02-04T13:34:18;4.07;;;2.30;;
10550;SDS011;5324;50.684;3.862;2024-02-04T13:36:45;4.50;;;2.70;;
10550;SDS011;5324;50.684;3.862;2024-02-04T13:39:11;5.40;;;2.10;;
10550;SDS011;5324;50.684;3.862;2024-02-04T13:41:38;4.67;;;2.13;;
10550;SDS011;5324;50.684;3.862;2024-02-04T13:44:04;6.97;;;2.60;;
10550;SDS011;5324;50.684;3.862;2024-02-04T13:46:30;5.27;;;2.20;;
10550;SDS011;5324;50.684;3.862;2024-02-04T13:48:56;5.77;;;2.40;;
10550;SDS011;5324;50.684;3.862;2024-02-04T13:51:22;2.97;;;2.30;;
10550;SDS011;5324;50.684;3.862;2024-02-04T13:53:48;3.77;;;1.90;;
10550;SDS011;5324;50.684;3.862;2024-02-04T13:56:14;4.73;;;2.10;;
10550;SDS011;5324;50.684;3.862;2024-02-04T13:58:44;5.27;;;2.10;;
10550;SDS011;5324;50.684;3.862;2024-02-04T14:01:10;10.77;;;2.60;;
10550;SDS011;5324;50.684;3.862;2024-02-04T14:03:38;3.13;;;2.00;;
10550;SDS011;5324;50.684;3.862;2024-02-04T14:06:04;4.10;;;2.13;;
10550;SDS011;5324;50.684;3.862;2024-02-04T14:08:30;3.60;;;1.70;;
10550;SDS011;5324;50.684;3.862;2024-02-04T14:10:56;7.30;;;2.43;;
10550;SDS011;5324;50.684;3.862;2024-02-04T14:13:22;6.40;;;2.00;;
10550;SDS011;5324;50.684;3.862;2024-02-04T14:15:48;5.83;;;2.67;;
10550;SDS011;5324;50.684;3.862;2024-02-04T14:18:14;7.50;;;1.87;;
10550;SDS011;5324;50.684;3.862;2024-02-04T14:20:40;6.27;;;2.60;;
10550;SDS011;5324;50.684;3.862;2024-02-04T14:23:06;6.27;;;2.63;;
10550;SDS011;5324;50.684;3.862;2024-02-04T14:25:34;4.47;;;2.60;;
10550;SDS011;5324;50.684;3.862;2024-02-04T14:28:00;6.37;;;3.50;;
10550;SDS011;5324;50.684;3.862;2024-02-04T14:30:26;3.97;;;2.17;;
10550;SDS011;5324;50.684;3.862;2024-02-04T14:32:52;8.13;;;2.73;;
10550;SDS011;5324;50.684;3.862;2024-02-04T14:35:18;3.70;;;2.33;;
10550;SDS011;5324;50.684;3.862;2024-02-04T14:37:44;6.93;;;2.37;;
10550;SDS011;5324;50.684;3.862;2024-02-04T14:40:10;4.17;;;2.13;;
10550;SDS011;5324;50.684;3.862;2024-02-04T14:42:37;2.43;;;1.80;;
10550;SDS011;5324;50.684;3.862;2024-02-04T14:45:03;4.70;;;2.23;;
10550;SDS011;5324;50.684;3.862;2024-02-04T14:47:31;6.13;;;2.30;;
10550;SDS011;5324;50.684;3.862;2024-02-04T14:49:57;3.23;;;2.00;;
10550;SDS011;5324;50.684;3.862;2024-02-04T14:52:23;4.97;;;2.67;;
10550;SDS011;5324;50.684;3.862;2024-02-04T14:54:49;6.93;;;2.83;;
10550;SDS011;5324;50.684;3.862;2024-02-04T14:57:15;5.23;;;2.43;;
10550;SDS011;5324;50.684;3.862;2024-02-04T14:59:41;4.43;;;2.70;;
10550;SDS011;5324;50.684;3.862;2024-02-04T15:02:08;8.80;;;3.40;;
10550;SDS011;5324;50.684;3.862;2024-02-04T15:04:34;6.43;;;3.00;;